Time,TemperatureF,DewpointF,PressureIn,WindDirection,WindDirectionDegrees,WindSpeedMPH,WindSpeedGustMPH,Humidity,HourlyPrecipIn,Conditions,Clouds,dailyrainin,SolarRadiationWatts/m^2,SoftwareType,DateUTC
2013-05-21 00:08:00,46.7,43.0,29.88,North,349,14.0,-999.0,88,-99.99,,,0.00,0,weatherlink.com 1.10,2013-05-21 06:08:00,
2013-05-21 00:23:00,46.8,43.0,29.88,NNW,342,12.0,-999.0,87,-99.99,,,0.00,0,weatherlink.com 1.10,2013-05-21 06:23:00,
2013-05-21 00:38:00,47.0,43.0,29.88,NNW,346,6.0,-999.0,85,-99.99,,,0.00,0,weatherlink.com 1.10,2013-05-21 06:38:00,
2013-05-21 00:53:00,46.5,43.0,29.88,North,360,5.0,-999.0,86,-99.99,,,0.00,0,weatherlink.com 1.10,2013-05-21 06:53:00,
2013-05-21 01:08:00,46.2,43.0,29.89,North,360,6.0,-999.0,87,-99.99,,,0.00,0,weatherlink.com 1.10,2013-05-21 07:08:00,
2013-05-21 01:23:00,45.8,42.0,29.88,North,350,14.0,-999.0,87,-99.99,,,0.00,0,weatherlink.com 1.10,2013-05-21 07:23:00,
2013-05-21 01:38:00,45.5,42.0,29.89,North,355,7.0,-999.0,88,-99.99,,,0.00,0,weatherlink.com 1.10,2013-05-21 07:38:00,
2013-05-21 01:53:00,45.3,42.0,29.88,North,355,5.0,-999.0,88,-99.99,,,0.00,0,weatherlink.com 1.10,2013-05-21 07:53:00,
2013-05-21 02:08:00,45.4,42.0,29.89,North,355,5.0,-999.0,88,-99.99,,,0.00,0,weatherlink.com 1.10,2013-05-21 08:08:00,
2013-05-21 02:23:00,45.2,42.0,29.89,North,360,5.0,-999.0,89,-99.99,,,0.00,0,weatherlink.com 1.10,2013-05-21 08:23:00,
2013-05-21 02:38:00,45.0,42.0,29.88,North,5,3.0,-999.0,89,-99.99,,,0.00,0,weatherlink.com 1.10,2013-05-21 08:38:00,
2013-05-21 02:53:00,45.0,42.0,29.88,North,350,6.0,-999.0,90,-99.99,,,0.01,0,weatherlink.com 1.10,2013-05-21 08:53:00,
2013-05-21 03:08:00,45.0,42.0,29.88,North,355,5.0,-999.0,90,-99.99,,,0.01,0,weatherlink.com 1.10,2013-05-21 09:08:00,
2013-05-21 03:23:00,45.2,43.0,29.88,North,5,6.0,-999.0,90,-99.99,,,0.01,0,weatherlink.com 1.10,2013-05-21 09:23:00,
2013-05-21 03:38:00,45.1,42.0,29.88,North,360,6.0,-999.0,90,-99.99,,,0.01,0,weatherlink.com 1.10,2013-05-21 09:38:00,
2013-05-21 03:53:00,45.0,42.0,29.88,NNE,14,3.0,-999.0,90,-99.99,,,0.01,0,weatherlink.com 1.10,2013-05-21 09:53:00,
2013-05-21 04:08:00,45.2,43.0,29.88,NNW,336,4.0,-999.0,91,-99.99,,,0.01,0,weatherlink.com 1.10,2013-05-21 10:08:00,
2013-05-21 04:23:00,45.8,43.0,29.88,NNW,337,4.0,-999.0,91,-99.99,,,0.01,0,weatherlink.com 1.10,2013-05-21 10:23:00,
2013-05-21 04:38:00,45.4,43.0,29.88,NNE,13,6.0,-999.0,91,-99.99,,,0.02,0,weatherlink.com 1.10,2013-05-21 10:38:00,
2013-05-21 04:53:00,45.0,43.0,29.88,NNE,20,6.0,-999.0,91,-99.99,,,0.02,0,weatherlink.com 1.10,2013-05-21 10:53:00,
2013-05-21 05:08:00,44.7,42.0,29.89,NNE,24,7.0,-999.0,91,-99.99,,,0.03,0,weatherlink.com 1.10,2013-05-21 11:08:00,
2013-05-21 05:23:00,43.9,42.0,29.89,North,5,3.0,-999.0,91,-99.99,,,0.03,0,weatherlink.com 1.10,2013-05-21 11:23:00,
2013-05-21 05:38:00,43.7,41.0,29.89,North,360,9.0,-999.0,91,-99.99,,,0.03,0,weatherlink.com 1.10,2013-05-21 11:38:00,
2013-05-21 05:53:00,43.5,41.0,29.89,North,355,10.0,-999.0,91,-99.99,,,0.03,0,weatherlink.com 1.10,2013-05-21 11:53:00,
2013-05-21 06:08:00,43.2,41.0,29.90,North,355,5.0,-999.0,91,-99.99,,,0.03,7,weatherlink.com 1.10,2013-05-21 12:08:00,
2013-05-21 06:23:00,43.0,41.0,29.90,North,9,10.0,-999.0,91,-99.99,,,0.03,9,weatherlink.com 1.10,2013-05-21 12:23:00,
2013-05-21 06:38:00,42.9,41.0,29.90,North,360,7.0,-999.0,91,-99.99,,,0.03,23,weatherlink.com 1.10,2013-05-21 12:38:00,
2013-05-21 06:53:00,42.9,41.0,29.90,North,355,6.0,-999.0,91,-99.99,,,0.04,30,weatherlink.com 1.10,2013-05-21 12:53:00,
2013-05-21 07:08:00,43.1,41.0,29.91,NNW,329,6.0,-999.0,91,-99.99,,,0.04,28,weatherlink.com 1.10,2013-05-21 13:08:00,
2013-05-21 07:23:00,43.3,41.0,29.91,NNE,14,6.0,-999.0,91,-99.99,,,0.04,42,weatherlink.com 1.10,2013-05-21 13:23:00,
2013-05-21 07:38:00,43.4,41.0,29.91,North,355,7.0,-999.0,91,-99.99,,,0.04,76,weatherlink.com 1.10,2013-05-21 13:38:00,
2013-05-21 07:53:00,43.7,41.0,29.91,North,355,5.0,-999.0,91,-99.99,,,0.04,98,weatherlink.com 1.10,2013-05-21 13:53:00,
2013-05-21 08:08:00,43.3,41.0,29.92,North,360,7.0,-999.0,90,-99.99,,,0.04,134,weatherlink.com 1.10,2013-05-21 14:08:00,
2013-05-21 08:23:00,43.5,41.0,29.92,NNW,346,6.0,-999.0,90,-99.99,,,0.04,162,weatherlink.com 1.10,2013-05-21 14:23:00,
2013-05-21 08:39:00,44.0,41.0,29.92,North,350,6.0,-999.0,90,-99.99,,,0.04,204,weatherlink.com 1.10,2013-05-21 14:39:00,
2013-05-21 08:54:00,43.9,41.0,29.93,North,360,8.0,-999.0,89,-99.99,,,0.04,130,weatherlink.com 1.10,2013-05-21 14:54:00,
2013-05-21 09:09:00,44.6,41.0,29.93,NNW,348,7.0,-999.0,88,-99.99,,,0.04,195,weatherlink.com 1.10,2013-05-21 15:09:00,
2013-05-21 09:24:00,45.0,41.0,29.93,NW,323,10.0,-999.0,87,-99.99,,,0.04,135,weatherlink.com 1.10,2013-05-21 15:24:00,
2013-05-21 09:39:00,45.3,41.0,29.93,North,349,9.0,-999.0,85,-99.99,,,0.04,163,weatherlink.com 1.10,2013-05-21 15:39:00,
2013-05-21 09:54:00,46.1,42.0,29.94,North,355,6.0,-999.0,84,-99.99,,,0.04,236,weatherlink.com 1.10,2013-05-21 15:54:00,
2013-05-21 10:09:00,46.5,42.0,29.94,NNW,327,6.0,-999.0,84,-99.99,,,0.04,316,weatherlink.com 1.10,2013-05-21 16:09:00,
2013-05-21 10:24:00,47.0,41.0,29.93,NNW,333,10.0,-999.0,80,-99.99,,,0.04,299,weatherlink.com 1.10,2013-05-21 16:24:00,
2013-05-21 10:39:00,47.4,41.0,29.94,NNW,344,6.0,-999.0,79,-99.99,,,0.04,257,weatherlink.com 1.10,2013-05-21 16:39:00,
2013-05-21 10:54:00,47.4,41.0,29.95,NW,321,6.0,-999.0,77,-99.99,,,0.04,236,weatherlink.com 1.10,2013-05-21 16:54:00,
2013-05-21 11:09:00,47.6,41.0,29.95,North,360,12.0,-999.0,77,-99.99,,,0.04,271,weatherlink.com 1.10,2013-05-21 17:09:00,
2013-05-21 11:24:00,48.2,41.0,29.95,NNE,21,9.0,-999.0,75,-99.99,,,0.04,364,weatherlink.com 1.10,2013-05-21 17:24:00,
2013-05-21 11:39:00,48.2,41.0,29.96,NW,325,10.0,-999.0,75,-99.99,,,0.04,327,weatherlink.com 1.10,2013-05-21 17:39:00,
2013-05-21 11:54:00,47.8,40.0,29.96,North,9,10.0,-999.0,75,-99.99,,,0.04,135,weatherlink.com 1.10,2013-05-21 17:54:00,
2013-05-21 12:09:00,48.6,41.0,29.95,North,360,4.0,-999.0,74,-99.99,,,0.04,295,weatherlink.com 1.10,2013-05-21 18:09:00,
2013-05-21 12:24:00,47.8,40.0,29.96,North,355,5.0,-999.0,75,-99.99,,,0.04,185,weatherlink.com 1.10,2013-05-21 18:24:00,
2013-05-21 12:39:00,48.2,41.0,29.95,North,351,8.0,-999.0,75,-99.99,,,0.04,320,weatherlink.com 1.10,2013-05-21 18:39:00,
2013-05-21 12:54:00,48.4,41.0,29.95,NNW,342,6.0,-999.0,76,-99.99,,,0.04,410,weatherlink.com 1.10,2013-05-21 18:54:00,
2013-05-21 13:09:00,48.5,41.0,29.96,North,5,4.0,-999.0,74,-99.99,,,0.04,262,weatherlink.com 1.10,2013-05-21 19:09:00,
2013-05-21 13:24:00,48.7,41.0,29.95,NNW,345,8.0,-999.0,74,-99.99,,,0.04,139,weatherlink.com 1.10,2013-05-21 19:24:00,
2013-05-21 13:39:00,48.4,40.0,29.96,NNW,344,7.0,-999.0,74,-99.99,,,0.04,202,weatherlink.com 1.10,2013-05-21 19:39:00,
2013-05-21 13:54:00,48.4,41.0,29.95,NNW,340,14.0,-999.0,75,-99.99,,,0.04,178,weatherlink.com 1.10,2013-05-21 19:54:00,
2013-05-21 14:09:00,49.7,41.0,29.95,NW,326,12.0,-999.0,71,-99.99,,,0.04,179,weatherlink.com 1.10,2013-05-21 20:09:00,
2013-05-21 14:24:00,49.2,41.0,29.95,North,355,5.0,-999.0,72,-99.99,,,0.04,329,weatherlink.com 1.10,2013-05-21 20:24:00,
2013-05-21 14:39:00,49.6,41.0,29.96,NW,326,11.0,-999.0,71,-99.99,,,0.04,146,weatherlink.com 1.10,2013-05-21 20:39:00,
2013-05-21 14:54:00,49.0,40.0,29.96,NNW,338,12.0,-999.0,72,-99.99,,,0.04,160,weatherlink.com 1.10,2013-05-21 20:54:00,
2013-05-21 15:09:00,50.0,41.0,29.96,North,355,9.0,-999.0,70,-99.99,,,0.04,276,weatherlink.com 1.10,2013-05-21 21:09:00,
2013-05-21 15:24:00,49.0,41.0,29.96,NNW,338,8.0,-999.0,73,-99.99,,,0.04,148,weatherlink.com 1.10,2013-05-21 21:24:00,
2013-05-21 15:39:00,49.5,42.0,29.97,North,11,6.0,-999.0,74,-99.99,,,0.04,214,weatherlink.com 1.10,2013-05-21 21:39:00,
2013-05-21 15:54:00,49.6,41.0,29.97,NNW,332,6.0,-999.0,71,-99.99,,,0.04,160,weatherlink.com 1.10,2013-05-21 21:54:00,
2013-05-21 16:09:00,48.9,41.0,29.97,NNW,338,5.0,-999.0,73,-99.99,,,0.04,77,weatherlink.com 1.10,2013-05-21 22:09:00,
2013-05-21 16:24:00,48.3,41.0,29.97,NNW,344,7.0,-999.0,75,-99.99,,,0.04,93,weatherlink.com 1.10,2013-05-21 22:24:00,
2013-05-21 16:39:00,48.4,41.0,29.97,North,355,8.0,-999.0,76,-99.99,,,0.04,158,weatherlink.com 1.10,2013-05-21 22:39:00,
2013-05-21 16:54:00,48.7,41.0,29.97,North,349,5.0,-999.0,76,-99.99,,,0.04,120,weatherlink.com 1.10,2013-05-21 22:54:00,
2013-05-21 17:09:00,48.9,41.0,29.97,NNW,335,4.0,-999.0,75,-99.99,,,0.04,98,weatherlink.com 1.10,2013-05-21 23:09:00,
2013-05-21 17:24:00,48.8,42.0,29.97,NNW,338,5.0,-999.0,76,-99.99,,,0.04,95,weatherlink.com 1.10,2013-05-21 23:24:00,
2013-05-21 17:39:00,49.1,42.0,29.96,North,360,14.0,-999.0,77,-99.99,,,0.04,100,weatherlink.com 1.10,2013-05-21 23:39:00,
2013-05-21 17:54:00,48.7,42.0,29.96,NNW,342,7.0,-999.0,78,-99.99,,,0.04,86,weatherlink.com 1.10,2013-05-21 23:54:00,
2013-05-21 18:09:00,48.1,42.0,29.96,North,360,9.0,-999.0,79,-99.99,,,0.04,32,weatherlink.com 1.10,2013-05-22 00:09:00,
2013-05-21 18:24:00,47.6,42.0,29.97,North,355,4.0,-999.0,80,-99.99,,,0.04,69,weatherlink.com 1.10,2013-05-22 00:24:00,
2013-05-21 18:39:00,48.3,42.0,29.97,NNW,334,4.0,-999.0,79,-99.99,,,0.04,44,weatherlink.com 1.10,2013-05-22 00:39:00,
2013-05-21 18:54:00,48.4,42.0,29.97,North,351,10.0,-999.0,77,-99.99,,,0.04,62,weatherlink.com 1.10,2013-05-22 00:54:00,
2013-05-21 19:09:00,48.2,42.0,29.97,North,355,3.0,-999.0,78,-99.99,,,0.04,35,weatherlink.com 1.10,2013-05-22 01:09:00,
2013-05-21 19:24:00,48.1,42.0,29.98,NW,304,6.0,-999.0,78,-99.99,,,0.04,26,weatherlink.com 1.10,2013-05-22 01:24:00,
2013-05-21 19:39:00,47.9,41.0,29.98,NNW,345,3.0,-999.0,78,-99.99,,,0.04,14,weatherlink.com 1.10,2013-05-22 01:39:00,
2013-05-21 19:54:00,47.7,41.0,29.99,NNW,339,9.0,-999.0,78,-99.99,,,0.04,0,weatherlink.com 1.10,2013-05-22 01:54:00,
2013-05-21 20:09:00,47.6,41.0,29.99,North,351,3.0,-999.0,79,-99.99,,,0.04,0,weatherlink.com 1.10,2013-05-22 02:09:00,
2013-05-21 20:24:00,47.4,42.0,29.99,North,355,4.0,-999.0,80,-99.99,,,0.04,0,weatherlink.com 1.10,2013-05-22 02:24:00,
2013-05-21 20:39:00,47.2,41.0,29.99,NNE,22,3.0,-999.0,80,-99.99,,,0.04,0,weatherlink.com 1.10,2013-05-22 02:39:00,
2013-05-21 20:54:00,47.0,41.0,30.00,North,360,3.0,-999.0,81,-99.99,,,0.04,0,weatherlink.com 1.10,2013-05-22 02:54:00,
2013-05-21 21:09:00,46.9,41.0,30.00,North,360,4.0,-999.0,81,-99.99,,,0.04,0,weatherlink.com 1.10,2013-05-22 03:09:00,
2013-05-21 21:24:00,46.7,42.0,30.00,NNE,14,3.0,-999.0,82,-99.99,,,0.04,0,weatherlink.com 1.10,2013-05-22 03:24:00,
2013-05-21 21:39:00,46.7,42.0,30.01,North,5,9.0,-999.0,83,-99.99,,,0.04,0,weatherlink.com 1.10,2013-05-22 03:39:00,
2013-05-21 21:55:00,46.7,42.0,30.01,NNE,12,6.0,-999.0,83,-99.99,,,0.04,0,weatherlink.com 1.10,2013-05-22 03:55:00,
2013-05-21 22:10:00,46.6,42.0,30.02,North,5,1.0,-999.0,83,-99.99,,,0.04,0,weatherlink.com 1.10,2013-05-22 04:10:00,
2013-05-21 22:25:00,46.7,42.0,30.02,NNE,21,3.0,-999.0,83,-99.99,,,0.04,0,weatherlink.com 1.10,2013-05-22 04:25:00,
2013-05-21 22:40:00,46.6,42.0,30.02,North,355,3.0,-999.0,83,-99.99,,,0.04,0,weatherlink.com 1.10,2013-05-22 04:40:00,
2013-05-21 22:55:00,46.6,42.0,30.02,North,360,1.0,-999.0,83,-99.99,,,0.04,0,weatherlink.com 1.10,2013-05-22 04:55:00,
2013-05-21 23:10:00,46.7,42.0,30.01,NNW,341,3.0,-999.0,83,-99.99,,,0.04,0,weatherlink.com 1.10,2013-05-22 05:10:00,
2013-05-21 23:25:00,46.6,42.0,30.01,North,360,3.0,-999.0,83,-99.99,,,0.04,0,weatherlink.com 1.10,2013-05-22 05:25:00,
2013-05-21 23:40:00,46.7,42.0,30.01,North,355,3.0,-999.0,83,-99.99,,,0.04,0,weatherlink.com 1.10,2013-05-22 05:40:00,
2013-05-21 23:55:00,46.7,42.0,30.01,North,11,2.0,-999.0,83,-99.99,,,0.04,0,weatherlink.com 1.10,2013-05-22 05:55:00,